createdAt,value
2022-11-14T00:05:02.085Z,91.7
2022-11-14T00:10:54.310Z,92.4
2022-11-14T00:16:44.796Z,92.5
2022-11-14T00:22:35.398Z,92.5
2022-11-14T00:28:27.347Z,91.8
2022-11-14T00:34:19.458Z,92.2
2022-11-14T00:40:11.667Z,93.5
2022-11-14T00:46:02.367Z,92.9
2022-11-14T00:51:54.292Z,92.5
2022-11-14T00:57:44.574Z,95.9
2022-11-14T01:03:35.701Z,94.5
2022-11-14T01:09:26.976Z,93.8
2022-11-14T01:15:18.648Z,93
2022-11-14T01:21:11.976Z,95
2022-11-14T01:27:02.932Z,96.3
2022-11-14T01:32:54.317Z,98.8
2022-11-14T01:38:44.748Z,96.9
2022-11-14T01:44:35.728Z,94.5
2022-11-14T01:50:26.888Z,94.5
2022-11-14T01:56:23.596Z,95.7
2022-11-14T02:02:15.861Z,94.7
2022-11-14T02:08:07.315Z,93.4
2022-11-14T02:13:58.007Z,93.5
2022-11-14T02:19:48.218Z,93
2022-11-14T02:25:40.609Z,93.1
2022-11-14T02:31:30.983Z,93.8
2022-11-14T02:37:22.020Z,93.8
2022-11-14T02:43:14.824Z,93.9
2022-11-14T02:49:04.926Z,94.1
2022-11-14T02:54:57.936Z,94.9
2022-11-14T03:01:21.376Z,94.8
2022-11-14T03:07:09.581Z,93.9
2022-11-14T03:12:58.830Z,96.3
2022-11-14T03:18:48.148Z,95.8
2022-11-14T03:24:39.126Z,96.4
2022-11-14T03:30:29.872Z,94.3
2022-11-14T03:36:20.655Z,95.7
2022-11-14T03:42:12.145Z,94.2
2022-11-14T03:48:03.763Z,94.9
2022-11-14T03:53:55.766Z,95.6
2022-11-14T03:59:57.535Z,95.2
2022-11-14T04:05:57.611Z,95.8
2022-11-14T04:18:09.783Z,95.1
2022-11-14T04:24:21.966Z,95.3
2022-11-14T04:30:33.557Z,96.2
2022-11-14T04:42:44.948Z,95.1
2022-11-14T04:48:36.715Z,95.1
2022-11-14T04:54:35.782Z,96.5
2022-11-14T05:00:33.705Z,98.4
2022-11-14T05:06:26.203Z,99.5
2022-11-14T05:12:22.126Z,99.6
2022-11-14T05:18:17.018Z,99.9
2022-11-14T05:24:08.633Z,100
2022-11-14T05:30:02.602Z,100
2022-11-14T05:35:55.853Z,100
2022-11-14T05:41:51.520Z,100
2022-11-14T05:47:45.255Z,100
2022-11-14T05:53:40.994Z,100
2022-11-14T05:59:34.919Z,100
2022-11-14T06:05:27.501Z,100
2022-11-14T06:11:29.016Z,100
2022-11-14T06:17:21.723Z,100
2022-11-14T06:23:13.576Z,100
2022-11-14T06:29:13.255Z,100
2022-11-14T06:35:05.194Z,100
2022-11-14T06:40:57.458Z,100
2022-11-14T06:46:52.277Z,100
2022-11-14T06:52:43.620Z,100
2022-11-14T06:58:39.732Z,100
2022-11-14T07:04:30.373Z,100
2022-11-14T07:10:22.508Z,100
2022-11-14T07:16:13.736Z,100
2022-11-14T07:22:06.304Z,100
2022-11-14T07:27:57.837Z,100
2022-11-14T07:33:49.886Z,100
2022-11-14T07:39:42.579Z,100
2022-11-14T07:45:35.934Z,100
2022-11-14T07:51:38.736Z,100
2022-11-14T07:57:35.520Z,100
2022-11-14T08:03:35.731Z,100
2022-11-14T08:09:36.203Z,100
2022-11-14T08:15:27.804Z,100
2022-11-14T08:21:17.246Z,100
2022-11-14T08:27:07.998Z,100
2022-11-14T08:33:00.615Z,100
2022-11-14T08:39:00.617Z,100
2022-11-14T08:44:54.879Z,100
2022-11-14T08:50:49.571Z,100
2022-11-14T08:56:42.577Z,100
2022-11-14T09:02:38.585Z,100
2022-11-14T09:08:31.997Z,100
2022-11-14T09:14:27.350Z,100
2022-11-14T09:20:19.956Z,100
2022-11-14T09:26:25.141Z,100
2022-11-14T09:32:29.391Z,100
2022-11-14T09:38:24.720Z,100
2022-11-14T09:44:22.839Z,100
2022-11-14T09:50:15.866Z,100
2022-11-14T09:56:15.912Z,100
2022-11-14T10:02:09.701Z,100
2022-11-14T10:08:04.070Z,100
2022-11-14T10:13:55.164Z,100
2022-11-14T10:19:46.773Z,100
2022-11-14T10:25:44.611Z,100
2022-11-14T10:31:41.124Z,100
2022-11-14T10:37:31.936Z,100
2022-11-14T10:43:25.034Z,100
2022-11-14T10:49:17.330Z,100
2022-11-14T10:55:09.930Z,100
2022-11-14T11:01:01.180Z,100
2022-11-14T11:06:53.289Z,100
2022-11-14T11:12:45.515Z,100
2022-11-14T11:18:52.473Z,100
2022-11-14T11:24:47.361Z,100
2022-11-14T11:38:24.628Z,100
2022-11-14T11:58:02.275Z,100
2022-11-14T12:04:14.432Z,100
2022-11-14T12:10:24.506Z,100
2022-11-14T12:16:29.936Z,100
2022-11-14T12:22:25.356Z,100
2022-11-14T12:28:20.114Z,100
2022-11-14T12:34:15.718Z,100
2022-11-14T12:40:13.066Z,100
2022-11-14T12:46:10.463Z,100
2022-11-14T12:52:19.112Z,100
2022-11-14T12:58:13.948Z,100
2022-11-14T13:04:10.563Z,100
2022-11-14T13:10:12.926Z,100
2022-11-14T13:16:06.546Z,100
2022-11-14T13:22:01.858Z,100
2022-11-14T13:28:21.966Z,100
2022-11-14T13:34:16.721Z,100
2022-11-14T13:40:09.650Z,100
2022-11-14T13:46:26.317Z,100
2022-11-14T13:52:35.331Z,100
2022-11-14T14:05:01.175Z,100
2022-11-14T14:11:01.294Z,100
2022-11-14T14:17:16.664Z,100
2022-11-14T14:23:24.925Z,100
2022-11-14T14:29:30.027Z,100
2022-11-14T14:35:40.578Z,100
2022-11-14T14:42:44.543Z,100
2022-11-14T14:48:48.125Z,100
2022-11-14T14:54:56.143Z,100
2022-11-14T15:01:08.720Z,100
2022-11-14T15:07:08.010Z,100
2022-11-14T15:12:58.231Z,100
2022-11-14T15:18:55.128Z,100
2022-11-14T15:24:45.018Z,100
2022-11-14T15:30:45.553Z,100
2022-11-14T15:37:50.186Z,100
2022-11-14T15:44:04.312Z,100
2022-11-14T15:49:59.325Z,100
2022-11-14T15:55:54.633Z,100
2022-11-14T16:01:59.148Z,100
2022-11-14T16:07:50.702Z,100
2022-11-14T16:13:43.713Z,100
2022-11-14T16:19:50.443Z,100
2022-11-14T16:25:45.240Z,100
2022-11-14T16:31:49.453Z,100
2022-11-14T16:37:40.883Z,100
2022-11-14T16:43:32.901Z,100
2022-11-14T16:49:27.073Z,100
2022-11-14T16:55:21.069Z,100
2022-11-14T17:01:32.649Z,100
2022-11-14T17:07:26.910Z,100
2022-11-14T17:13:26.136Z,100
2022-11-14T17:19:17.219Z,100
2022-11-14T17:25:07.690Z,100
2022-11-14T17:31:09.980Z,100
2022-11-14T17:37:04.462Z,100
2022-11-14T17:42:56.706Z,100
2022-11-14T17:48:58.089Z,100
2022-11-14T17:54:49.986Z,100
2022-11-14T18:00:46.463Z,100
2022-11-14T18:06:45.322Z,100
2022-11-14T18:12:47.483Z,100
2022-11-14T18:18:42.521Z,100
2022-11-14T18:24:35.600Z,100
2022-11-14T18:30:44.868Z,100
2022-11-14T18:37:01.260Z,100
2022-11-14T18:42:55.553Z,100
2022-11-14T18:48:52.831Z,100
2022-11-14T18:54:54.990Z,100
2022-11-14T19:01:01.312Z,100
2022-11-14T19:06:59.141Z,100
2022-11-14T19:13:03.663Z,100
2022-11-14T19:19:17.036Z,100
2022-11-14T19:25:08.457Z,100
2022-11-14T19:31:05.776Z,100
2022-11-14T19:37:03.929Z,100
2022-11-14T19:43:03.192Z,100
2022-11-14T19:49:02.258Z,100
2022-11-14T19:55:07.513Z,100
2022-11-14T20:01:04.106Z,100
2022-11-14T20:07:00.865Z,100
2022-11-14T20:13:03.251Z,100
2022-11-14T20:19:01.119Z,100
2022-11-14T20:24:58.026Z,100
2022-11-14T20:30:52.163Z,100
2022-11-14T20:37:12.158Z,100
2022-11-14T20:43:06.929Z,100
2022-11-14T20:55:35.611Z,100
2022-11-14T21:01:31.192Z,100
2022-11-14T21:20:02.250Z,100
2022-11-14T21:25:55.204Z,100
2022-11-14T21:31:50.208Z,100
2022-11-14T21:37:40.258Z,100
2022-11-14T21:43:36.924Z,100
2022-11-14T21:49:39.538Z,100
2022-11-14T21:55:46.512Z,100
2022-11-14T22:01:39.143Z,100
2022-11-14T22:07:31.140Z,100
2022-11-14T22:13:22.592Z,100
2022-11-14T22:19:14.654Z,100
2022-11-14T22:25:05.183Z,100
2022-11-14T22:30:55.955Z,100
2022-11-14T22:36:47.383Z,100
2022-11-14T22:42:45.167Z,100
2022-11-14T22:48:44.801Z,100
2022-11-14T22:54:37.561Z,100
2022-11-14T23:00:31.792Z,100
2022-11-14T23:06:44.729Z,100
2022-11-14T23:12:54.198Z,100
2022-11-14T23:18:46.367Z,100
2022-11-14T23:24:38.150Z,100
2022-11-14T23:30:38.265Z,100
2022-11-14T23:36:26.694Z,100
2022-11-14T23:42:22.646Z,100
2022-11-14T23:48:17.490Z,100
2022-11-14T23:54:25.125Z,100
